sensor_id;sensor_type;location;lat;lon;timestamp;pressure;altitude;pressure_sealevel;temperature;humidity
59194;BME280;44967;48.598;15.650;2023-10-09T00:02:10;99070.94;;;10.79;86.15
59194;BME280;44967;48.598;15.650;2023-10-09T00:04:37;99068.28;;;10.79;85.75
59194;BME280;44967;48.598;15.650;2023-10-09T00:07:06;99073.50;;;10.83;86.35
59194;BME280;44967;48.598;15.650;2023-10-09T00:09:36;99066.38;;;10.87;85.82
59194;BME280;44967;48.598;15.650;2023-10-09T00:12:17;99054.09;;;10.83;85.27
59194;BME280;44967;48.598;15.650;2023-10-09T00:14:49;99054.06;;;10.86;85.42
59194;BME280;44967;48.598;15.650;2023-10-09T00:17:17;99047.88;;;10.87;85.26
59194;BME280;44967;48.598;15.650;2023-10-09T00:19:49;99047.91;;;10.85;84.99
59194;BME280;44967;48.598;15.650;2023-10-09T00:22:17;99049.91;;;10.73;84.53
59194;BME280;44967;48.598;15.650;2023-10-09T00:24:49;99057.84;;;10.73;84.75
59194;BME280;44967;48.598;15.650;2023-10-09T00:27:35;99045.34;;;10.81;84.12
59194;BME280;44967;48.598;15.650;2023-10-09T00:30:02;99033.84;;;10.83;83.97
59194;BME280;44967;48.598;15.650;2023-10-09T00:32:29;99032.88;;;10.87;83.95
59194;BME280;44967;48.598;15.650;2023-10-09T00:34:58;99037.25;;;10.90;83.85
59194;BME280;44967;48.598;15.650;2023-10-09T00:37:45;99033.69;;;10.91;83.74
59194;BME280;44967;48.598;15.650;2023-10-09T00:40:11;99029.31;;;10.90;83.87
59194;BME280;44967;48.598;15.650;2023-10-09T00:42:48;99026.53;;;10.96;83.74
59194;BME280;44967;48.598;15.650;2023-10-09T00:45:14;99026.47;;;10.99;84.10
59194;BME280;44967;48.598;15.650;2023-10-09T00:47:51;99023.81;;;10.99;83.61
59194;BME280;44967;48.598;15.650;2023-10-09T00:50:21;99016.81;;;10.98;83.51
59194;BME280;44967;48.598;15.650;2023-10-09T00:52:54;99015.97;;;10.95;83.48
59194;BME280;44967;48.598;15.650;2023-10-09T00:55:32;99009.00;;;10.92;83.31
59194;BME280;44967;48.598;15.650;2023-10-09T00:58:21;98997.59;;;10.90;84.57
59194;BME280;44967;48.598;15.650;2023-10-09T01:00:52;98993.97;;;10.94;84.34
59194;BME280;44967;48.598;15.650;2023-10-09T01:03:19;98983.34;;;10.96;84.55
59194;BME280;44967;48.598;15.650;2023-10-09T01:05:48;98979.84;;;10.95;84.12
59194;BME280;44967;48.598;15.650;2023-10-09T01:08:39;98978.97;;;10.95;84.63
59194;BME280;44967;48.598;15.650;2023-10-09T01:11:05;98978.94;;;10.96;84.33
59194;BME280;44967;48.598;15.650;2023-10-09T01:13:37;98975.50;;;10.93;84.87
59194;BME280;44967;48.598;15.650;2023-10-09T01:16:12;98980.63;;;11.00;84.89
59194;BME280;44967;48.598;15.650;2023-10-09T01:18:44;98980.47;;;11.06;84.32
59194;BME280;44967;48.598;15.650;2023-10-09T01:21:12;98976.94;;;11.07;84.07
59194;BME280;44967;48.598;15.650;2023-10-09T01:23:43;98977.91;;;11.03;84.20
59194;BME280;44967;48.598;15.650;2023-10-09T01:26:38;98976.31;;;10.95;84.50
59194;BME280;44967;48.598;15.650;2023-10-09T01:29:16;98975.50;;;10.91;84.63
59194;BME280;44967;48.598;15.650;2023-10-09T01:31:55;98968.50;;;10.90;84.86
59194;BME280;44967;48.598;15.650;2023-10-09T01:34:22;98977.56;;;10.77;85.56
59194;BME280;44967;48.598;15.650;2023-10-09T01:37:07;98970.69;;;10.70;86.55
59194;BME280;44967;48.598;15.650;2023-10-09T01:39:57;98965.19;;;10.79;86.67
59194;BME280;44967;48.598;15.650;2023-10-09T01:42:25;98966.94;;;10.80;85.93
59194;BME280;44967;48.598;15.650;2023-10-09T01:45:00;98955.38;;;10.85;86.30
59194;BME280;44967;48.598;15.650;2023-10-09T01:47:46;98942.94;;;10.89;85.65
59194;BME280;44967;48.598;15.650;2023-10-09T01:50:19;98936.91;;;10.82;86.33
59194;BME280;44967;48.598;15.650;2023-10-09T01:52:50;98929.91;;;10.80;86.46
59194;BME280;44967;48.598;15.650;2023-10-09T01:55:19;98914.91;;;10.82;86.06
59194;BME280;44967;48.598;15.650;2023-10-09T01:57:59;98919.19;;;10.87;86.46
59194;BME280;44967;48.598;15.650;2023-10-09T02:00:33;98920.94;;;10.87;86.09
59194;BME280;44967;48.598;15.650;2023-10-09T02:03:08;98908.66;;;10.86;86.22
59194;BME280;44967;48.598;15.650;2023-10-09T02:05:38;98904.44;;;10.76;86.49
59194;BME280;44967;48.598;15.650;2023-10-09T02:08:05;98897.38;;;10.78;86.55
59194;BME280;44967;48.598;15.650;2023-10-09T02:10:32;98895.47;;;10.84;86.73
59194;BME280;44967;48.598;15.650;2023-10-09T02:12:59;98888.31;;;10.90;86.39
59194;BME280;44967;48.598;15.650;2023-10-09T02:15:26;98886.53;;;10.90;85.99
59194;BME280;44967;48.598;15.650;2023-10-09T02:18:15;98888.22;;;10.93;86.10
59194;BME280;44967;48.598;15.650;2023-10-09T02:20:52;98883.81;;;10.93;85.11
59194;BME280;44967;48.598;15.650;2023-10-09T02:23:42;98894.59;;;10.84;86.00
59194;BME280;44967;48.598;15.650;2023-10-09T02:26:11;98892.72;;;10.89;85.98
59194;BME280;44967;48.598;15.650;2023-10-09T02:28:45;98883.81;;;10.93;85.60
59194;BME280;44967;48.598;15.650;2023-10-09T02:31:32;98878.66;;;10.87;85.17
59194;BME280;44967;48.598;15.650;2023-10-09T02:34:01;98882.13;;;10.89;85.52
59194;BME280;44967;48.598;15.650;2023-10-09T02:36:31;98871.41;;;10.95;85.58
59194;BME280;44967;48.598;15.650;2023-10-09T02:39:00;98874.91;;;10.97;85.40
59194;BME280;44967;48.598;15.650;2023-10-09T02:41:25;98869.53;;;11.02;85.16
59194;BME280;44967;48.598;15.650;2023-10-09T02:43:54;98869.47;;;11.03;84.97
59194;BME280;44967;48.598;15.650;2023-10-09T02:46:37;98868.50;;;11.07;84.42
59194;BME280;44967;48.598;15.650;2023-10-09T02:49:05;98865.84;;;11.07;84.22
59194;BME280;44967;48.598;15.650;2023-10-09T02:51:35;98849.16;;;11.05;84.08
59194;BME280;44967;48.598;15.650;2023-10-09T02:54:07;98845.59;;;11.06;83.96
59194;BME280;44967;48.598;15.650;2023-10-09T02:56:51;98846.63;;;10.99;83.75
59194;BME280;44967;48.598;15.650;2023-10-09T02:59:35;98838.88;;;10.92;84.60
59194;BME280;44967;48.598;15.650;2023-10-09T03:02:04;98836.06;;;10.99;84.12
59194;BME280;44967;48.598;15.650;2023-10-09T03:04:30;98828.97;;;11.01;84.32
59194;BME280;44967;48.598;15.650;2023-10-09T03:06:58;98827.44;;;10.91;84.45
59194;BME280;44967;48.598;15.650;2023-10-09T03:09:25;98822.31;;;10.85;85.04
59194;BME280;44967;48.598;15.650;2023-10-09T03:12:00;98822.31;;;10.85;85.30
59194;BME280;44967;48.598;15.650;2023-10-09T03:14:29;98807.22;;;10.88;85.57
59194;BME280;44967;48.598;15.650;2023-10-09T03:16:56;98801.00;;;10.91;85.33
59194;BME280;44967;48.598;15.650;2023-10-09T03:19:25;98787.84;;;10.88;85.60
59194;BME280;44967;48.598;15.650;2023-10-09T03:21:52;98780.97;;;10.81;85.97
59194;BME280;44967;48.598;15.650;2023-10-09T03:24:17;98775.78;;;10.78;86.62
59194;BME280;44967;48.598;15.650;2023-10-09T03:26:46;98772.34;;;10.74;85.65
59194;BME280;44967;48.598;15.650;2023-10-09T03:29:11;98765.25;;;10.75;86.26
59194;BME280;44967;48.598;15.650;2023-10-09T03:31:37;98765.19;;;10.78;85.73
59194;BME280;44967;48.598;15.650;2023-10-09T03:34:04;98767.00;;;10.76;86.28
59194;BME280;44967;48.598;15.650;2023-10-09T03:36:30;98757.41;;;10.72;85.64
59194;BME280;44967;48.598;15.650;2023-10-09T03:38:57;98756.69;;;10.65;85.83
59194;BME280;44967;48.598;15.650;2023-10-09T03:41:24;98756.63;;;10.67;85.85
59194;BME280;44967;48.598;15.650;2023-10-09T03:43:53;98753.16;;;10.65;85.55
59194;BME280;44967;48.598;15.650;2023-10-09T03:46:20;98748.88;;;10.59;84.93
59194;BME280;44967;48.598;15.650;2023-10-09T03:48:50;98745.38;;;10.59;85.04
59194;BME280;44967;48.598;15.650;2023-10-09T03:51:23;98731.63;;;10.45;85.86
59194;BME280;44967;48.598;15.650;2023-10-09T03:53:49;98726.31;;;10.45;85.63
59194;BME280;44967;48.598;15.650;2023-10-09T03:56:16;98724.66;;;10.40;85.61
59194;BME280;44967;48.598;15.650;2023-10-09T03:58:45;98731.78;;;10.38;85.47
59194;BME280;44967;48.598;15.650;2023-10-09T04:01:19;98716.13;;;10.29;85.84
59194;BME280;44967;48.598;15.650;2023-10-09T04:03:55;98717.09;;;10.24;86.41
59194;BME280;44967;48.598;15.650;2023-10-09T04:06:21;98718.94;;;10.22;86.28
59194;BME280;44967;48.598;15.650;2023-10-09T04:08:48;98722.38;;;10.25;86.50
59194;BME280;44967;48.598;15.650;2023-10-09T04:11:17;98727.91;;;10.15;86.17
59194;BME280;44967;48.598;15.650;2023-10-09T04:13:45;98732.22;;;10.17;86.10
59194;BME280;44967;48.598;15.650;2023-10-09T04:16:12;98714.84;;;10.07;85.99
59194;BME280;44967;48.598;15.650;2023-10-09T04:18:57;98716.53;;;10.08;86.21
59194;BME280;44967;48.598;15.650;2023-10-09T04:21:26;98708.72;;;10.04;86.37
59194;BME280;44967;48.598;15.650;2023-10-09T04:24:06;98706.94;;;10.04;86.74
59194;BME280;44967;48.598;15.650;2023-10-09T04:26:42;98708.06;;;9.94;86.38
59194;BME280;44967;48.598;15.650;2023-10-09T04:29:14;98701.03;;;9.93;87.09
59194;BME280;44967;48.598;15.650;2023-10-09T04:31:56;98695.03;;;9.86;86.61
59194;BME280;44967;48.598;15.650;2023-10-09T04:34:25;98689.75;;;9.86;86.95
59194;BME280;44967;48.598;15.650;2023-10-09T04:36:51;98680.25;;;9.78;86.66
59194;BME280;44967;48.598;15.650;2023-10-09T04:39:22;98681.19;;;9.75;87.25
59194;BME280;44967;48.598;15.650;2023-10-09T04:41:57;98676.00;;;9.71;87.00
59194;BME280;44967;48.598;15.650;2023-10-09T04:44:42;98668.16;;;9.68;86.86
59194;BME280;44967;48.598;15.650;2023-10-09T04:47:27;98667.22;;;9.70;87.02
59194;BME280;44967;48.598;15.650;2023-10-09T04:50:15;98662.88;;;9.68;86.84
59194;BME280;44967;48.598;15.650;2023-10-09T04:52:44;98663.06;;;9.59;86.75
59194;BME280;44967;48.598;15.650;2023-10-09T04:55:10;98643.03;;;9.50;86.70
59194;BME280;44967;48.598;15.650;2023-10-09T04:57:40;98647.56;;;9.43;87.25
59194;BME280;44967;48.598;15.650;2023-10-09T05:00:10;98638.88;;;9.38;87.31
59194;BME280;44967;48.598;15.650;2023-10-09T05:02:48;98634.53;;;9.36;87.29
59194;BME280;44967;48.598;15.650;2023-10-09T05:05:21;98617.88;;;9.32;86.88
59194;BME280;44967;48.598;15.650;2023-10-09T05:08:05;98630.22;;;9.32;87.12
59194;BME280;44967;48.598;15.650;2023-10-09T05:10:54;98624.97;;;9.30;86.90
59194;BME280;44967;48.598;15.650;2023-10-09T05:13:44;98619.78;;;9.26;87.47
59194;BME280;44967;48.598;15.650;2023-10-09T05:16:11;98617.22;;;9.21;86.82
59194;BME280;44967;48.598;15.650;2023-10-09T05:18:58;98612.91;;;9.17;86.92
59194;BME280;44967;48.598;15.650;2023-10-09T05:21:53;98620.00;;;9.14;86.70
59194;BME280;44967;48.598;15.650;2023-10-09T05:24:23;98620.22;;;9.03;87.15
59194;BME280;44967;48.598;15.650;2023-10-09T05:26:52;98622.78;;;9.08;86.70
59194;BME280;44967;48.598;15.650;2023-10-09T05:29:25;98618.47;;;9.04;86.42
59194;BME280;44967;48.598;15.650;2023-10-09T05:32:14;98606.19;;;9.01;86.67
59194;BME280;44967;48.598;15.650;2023-10-09T05:34:46;98605.38;;;8.99;86.26
59194;BME280;44967;48.598;15.650;2023-10-09T05:37:31;98592.13;;;9.02;86.91
59194;BME280;44967;48.598;15.650;2023-10-09T05:40:04;98583.09;;;9.14;87.41
59194;BME280;44967;48.598;15.650;2023-10-09T05:42:42;98575.19;;;9.14;86.48
59194;BME280;44967;48.598;15.650;2023-10-09T05:45:15;98570.94;;;9.08;85.79
59194;BME280;44967;48.598;15.650;2023-10-09T05:47:48;98562.25;;;9.03;86.68
59194;BME280;44967;48.598;15.650;2023-10-09T05:50:29;98555.16;;;9.05;87.08
59194;BME280;44967;48.598;15.650;2023-10-09T05:52:56;98564.56;;;9.18;88.44
59194;BME280;44967;48.598;15.650;2023-10-09T05:55:31;98562.44;;;9.35;87.84
59194;BME280;44967;48.598;15.650;2023-10-09T05:58:15;98566.41;;;9.55;87.33
59194;BME280;44967;48.598;15.650;2023-10-09T06:00:59;98574.16;;;9.62;86.84
59194;BME280;44967;48.598;15.650;2023-10-09T06:03:44;98573.22;;;9.65;87.36
59194;BME280;44967;48.598;15.650;2023-10-09T06:06:38;98565.88;;;9.79;87.22
59194;BME280;44967;48.598;15.650;2023-10-09T06:09:14;98565.47;;;9.95;86.84
59194;BME280;44967;48.598;15.650;2023-10-09T06:11:48;98560.81;;;10.07;86.01
59194;BME280;44967;48.598;15.650;2023-10-09T06:14:21;98557.38;;;10.03;86.20
59194;BME280;44967;48.598;15.650;2023-10-09T06:16:56;98555.38;;;10.13;84.99
59194;BME280;44967;48.598;15.650;2023-10-09T06:19:23;98541.00;;;10.26;84.72
59194;BME280;44967;48.598;15.650;2023-10-09T06:21:49;98534.69;;;10.31;84.88
59194;BME280;44967;48.598;15.650;2023-10-09T06:24:21;98530.91;;;10.42;84.44
59194;BME280;44967;48.598;15.650;2023-10-09T06:26:59;98518.81;;;10.31;84.46
59194;BME280;44967;48.598;15.650;2023-10-09T06:29:26;98514.09;;;10.44;83.14
59194;BME280;44967;48.598;15.650;2023-10-09T06:32:07;98514.31;;;10.36;82.81
59194;BME280;44967;48.598;15.650;2023-10-09T06:34:52;98520.28;;;10.43;83.12
59194;BME280;44967;48.598;15.650;2023-10-09T06:37:18;98523.53;;;10.54;82.72
59194;BME280;44967;48.598;15.650;2023-10-09T06:39:51;98530.47;;;10.58;82.66
59194;BME280;44967;48.598;15.650;2023-10-09T06:42:26;98530.38;;;10.61;82.19
59194;BME280;44967;48.598;15.650;2023-10-09T06:45:06;98531.66;;;10.79;82.32
59194;BME280;44967;48.598;15.650;2023-10-09T06:47:46;98525.31;;;10.86;81.57
59194;BME280;44967;48.598;15.650;2023-10-09T06:50:22;98524.22;;;10.93;82.10
59194;BME280;44967;48.598;15.650;2023-10-09T06:52:49;98531.19;;;10.96;81.41
59194;BME280;44967;48.598;15.650;2023-10-09T06:55:26;98529.94;;;11.09;80.96
59194;BME280;44967;48.598;15.650;2023-10-09T06:58:00;98516.38;;;11.19;80.65
59194;BME280;44967;48.598;15.650;2023-10-09T07:00:42;98517.22;;;11.21;80.20
59194;BME280;44967;48.598;15.650;2023-10-09T07:03:39;98519.78;;;11.24;80.46
59194;BME280;44967;48.598;15.650;2023-10-09T07:06:18;98523.97;;;11.31;80.01
59194;BME280;44967;48.598;15.650;2023-10-09T07:08:55;98527.97;;;11.45;79.20
59194;BME280;44967;48.598;15.650;2023-10-09T07:14:13;98516.19;;;11.55;78.99
59194;BME280;44967;48.598;15.650;2023-10-09T07:17:04;98503.41;;;11.69;78.52
59194;BME280;44967;48.598;15.650;2023-10-09T07:19:43;98513.13;;;11.68;78.24
59194;BME280;44967;48.598;15.650;2023-10-09T07:22:28;98515.34;;;11.82;77.74
59194;BME280;44967;48.598;15.650;2023-10-09T07:25:05;98506.25;;;11.91;76.76
59194;BME280;44967;48.598;15.650;2023-10-09T07:27:40;98510.56;;;11.93;77.17
59194;BME280;44967;48.598;15.650;2023-10-09T07:30:20;98507.03;;;11.94;76.96
59194;BME280;44967;48.598;15.650;2023-10-09T07:33:03;98509.28;;;12.06;77.06
59194;BME280;44967;48.598;15.650;2023-10-09T07:35:45;98504.88;;;12.05;76.68
59194;BME280;44967;48.598;15.650;2023-10-09T07:38:13;98504.41;;;12.20;75.92
59194;BME280;44967;48.598;15.650;2023-10-09T07:40:41;98498.50;;;12.12;75.82
59194;BME280;44967;48.598;15.650;2023-10-09T07:43:27;98492.16;;;12.16;76.62
59194;BME280;44967;48.598;15.650;2023-10-09T07:46:03;98488.69;;;12.14;76.56
59194;BME280;44967;48.598;15.650;2023-10-09T07:48:29;98497.66;;;12.10;77.11
59194;BME280;44967;48.598;15.650;2023-10-09T07:51:12;98499.50;;;12.08;76.75
59194;BME280;44967;48.598;15.650;2023-10-09T07:53:38;98488.50;;;12.20;77.19
59194;BME280;44967;48.598;15.650;2023-10-09T07:56:13;98502.44;;;12.25;77.14
59194;BME280;44967;48.598;15.650;2023-10-09T07:58:46;98496.59;;;12.16;76.84
59194;BME280;44967;48.598;15.650;2023-10-09T08:01:15;98501.50;;;12.28;76.40
59194;BME280;44967;48.598;15.650;2023-10-09T08:03:50;98497.59;;;12.38;76.21
59194;BME280;44967;48.598;15.650;2023-10-09T08:06:32;98506.25;;;12.43;76.64
59194;BME280;44967;48.598;15.650;2023-10-09T08:09:05;98505.00;;;12.53;76.35
59194;BME280;44967;48.598;15.650;2023-10-09T08:11:41;98495.06;;;12.60;75.83
59194;BME280;44967;48.598;15.650;2023-10-09T08:14:13;98505.28;;;12.70;75.55
59194;BME280;44967;48.598;15.650;2023-10-09T08:16:58;98487.00;;;12.63;75.03
59194;BME280;44967;48.598;15.650;2023-10-09T08:20:00;98485.97;;;12.67;75.72
59194;BME280;44967;48.598;15.650;2023-10-09T08:22:37;98480.44;;;12.73;75.90
59194;BME280;44967;48.598;15.650;2023-10-09T08:25:15;98473.19;;;12.78;75.97
59194;BME280;44967;48.598;15.650;2023-10-09T08:28:02;98483.03;;;12.74;75.34
59194;BME280;44967;48.598;15.650;2023-10-09T08:30:40;98474.53;;;12.90;75.05
59194;BME280;44967;48.598;15.650;2023-10-09T08:33:15;98473.22;;;12.76;75.31
59194;BME280;44967;48.598;15.650;2023-10-09T08:35:54;98474.78;;;12.84;76.37
59194;BME280;44967;48.598;15.650;2023-10-09T08:38:40;98464.47;;;12.99;75.65
59194;BME280;44967;48.598;15.650;2023-10-09T08:41:10;98465.94;;;13.06;76.54
59194;BME280;44967;48.598;15.650;2023-10-09T08:43:52;98470.38;;;13.06;75.70
59194;BME280;44967;48.598;15.650;2023-10-09T08:46:20;98477.66;;;13.01;76.06
59194;BME280;44967;48.598;15.650;2023-10-09T08:48:46;98482.53;;;12.88;75.96
59194;BME280;44967;48.598;15.650;2023-10-09T08:51:13;98477.75;;;12.98;76.55
59194;BME280;44967;48.598;15.650;2023-10-09T08:53:40;98475.50;;;12.64;76.12
59194;BME280;44967;48.598;15.650;2023-10-09T08:56:10;98475.84;;;12.78;75.59
59194;BME280;44967;48.598;15.650;2023-10-09T08:58:36;98477.88;;;12.71;76.00
59194;BME280;44967;48.598;15.650;2023-10-09T09:01:05;98484.03;;;12.72;76.25
59194;BME280;44967;48.598;15.650;2023-10-09T09:03:39;98478.63;;;12.75;75.81
59194;BME280;44967;48.598;15.650;2023-10-09T09:06:06;98490.59;;;12.60;76.41
59194;BME280;44967;48.598;15.650;2023-10-09T09:08:33;98493.25;;;12.85;76.79
59194;BME280;44967;48.598;15.650;2023-10-09T09:11:09;98489.16;;;13.25;76.49
59194;BME280;44967;48.598;15.650;2023-10-09T09:16:03;98492.72;;;13.23;74.95
59194;BME280;44967;48.598;15.650;2023-10-09T09:18:29;98498.59;;;13.32;74.91
59194;BME280;44967;48.598;15.650;2023-10-09T09:21:18;98505.16;;;13.46;74.79
59194;BME280;44967;48.598;15.650;2023-10-09T09:23:56;98510.75;;;13.39;73.27
59194;BME280;44967;48.598;15.650;2023-10-09T09:26:37;98501.38;;;13.29;74.62
59194;BME280;44967;48.598;15.650;2023-10-09T09:29:06;98502.38;;;13.49;74.14
59194;BME280;44967;48.598;15.650;2023-10-09T09:31:34;98506.16;;;13.65;73.23
59194;BME280;44967;48.598;15.650;2023-10-09T09:34:07;98511.28;;;13.70;73.45
59194;BME280;44967;48.598;15.650;2023-10-09T09:36:57;98507.59;;;13.74;73.62
59194;BME280;44967;48.598;15.650;2023-10-09T09:39:26;98513.00;;;13.71;73.48
59194;BME280;44967;48.598;15.650;2023-10-09T09:42:00;98520.94;;;13.94;73.22
59194;BME280;44967;48.598;15.650;2023-10-09T09:44:39;98521.41;;;14.04;73.64
59194;BME280;44967;48.598;15.650;2023-10-09T09:47:15;98523.25;;;14.24;72.56
59194;BME280;44967;48.598;15.650;2023-10-09T09:49:56;98524.72;;;14.52;71.48
59194;BME280;44967;48.598;15.650;2023-10-09T09:52:29;98525.84;;;14.47;69.89
59194;BME280;44967;48.598;15.650;2023-10-09T09:55:04;98530.97;;;14.72;69.76
59194;BME280;44967;48.598;15.650;2023-10-09T09:57:32;98531.47;;;14.81;68.96
59194;BME280;44967;48.598;15.650;2023-10-09T09:59:58;98525.38;;;14.78;69.54
59194;BME280;44967;48.598;15.650;2023-10-09T10:02:32;98543.25;;;14.54;69.23
59194;BME280;44967;48.598;15.650;2023-10-09T10:05:04;98544.16;;;14.33;70.75
59194;BME280;44967;48.598;15.650;2023-10-09T10:07:33;98539.88;;;14.29;71.52
59194;BME280;44967;48.598;15.650;2023-10-09T10:10:38;98537.63;;;14.41;71.91
59194;BME280;44967;48.598;15.650;2023-10-09T10:13:13;98544.28;;;14.30;73.46
59194;BME280;44967;48.598;15.650;2023-10-09T10:15:59;98554.16;;;14.26;74.12
59194;BME280;44967;48.598;15.650;2023-10-09T10:18:56;98547.19;;;14.24;76.07
59194;BME280;44967;48.598;15.650;2023-10-09T10:21:26;98548.34;;;14.16;75.64
59194;BME280;44967;48.598;15.650;2023-10-09T10:24:01;98548.72;;;14.07;78.27
59194;BME280;44967;48.598;15.650;2023-10-09T10:26:36;98541.56;;;14.09;78.96
59194;BME280;44967;48.598;15.650;2023-10-09T10:29:17;98544.16;;;14.11;79.14
59194;BME280;44967;48.598;15.650;2023-10-09T10:32:02;98524.56;;;14.13;79.84
59194;BME280;44967;48.598;15.650;2023-10-09T10:34:53;98533.66;;;14.08;79.41
59194;BME280;44967;48.598;15.650;2023-10-09T10:40:25;98506.03;;;13.90;79.87
59194;BME280;44967;48.598;15.650;2023-10-09T10:43:16;98502.06;;;14.00;80.58
59194;BME280;44967;48.598;15.650;2023-10-09T10:46:07;98500.38;;;14.20;81.42
59194;BME280;44967;48.598;15.650;2023-10-09T10:48:51;98496.75;;;14.22;83.34
59194;BME280;44967;48.598;15.650;2023-10-09T10:51:34;98487.63;;;14.28;83.13
59194;BME280;44967;48.598;15.650;2023-10-09T10:54:03;98474.09;;;14.34;84.20
59194;BME280;44967;48.598;15.650;2023-10-09T10:56:56;98487.41;;;14.34;84.92
59194;BME280;44967;48.598;15.650;2023-10-09T10:59:23;98488.03;;;14.40;85.62
59194;BME280;44967;48.598;15.650;2023-10-09T11:01:53;98482.72;;;14.60;83.66
59194;BME280;44967;48.598;15.650;2023-10-09T11:04:22;98492.34;;;14.83;83.40
59194;BME280;44967;48.598;15.650;2023-10-09T11:07:01;98495.22;;;14.97;81.93
59194;BME280;44967;48.598;15.650;2023-10-09T11:09:54;98494.97;;;15.03;82.68
59194;BME280;44967;48.598;15.650;2023-10-09T11:12:27;98483.47;;;15.22;80.56
59194;BME280;44967;48.598;15.650;2023-10-09T11:15:06;98484.78;;;15.32;81.66
59194;BME280;44967;48.598;15.650;2023-10-09T11:20:53;98479.81;;;15.43;80.61
59194;BME280;44967;48.598;15.650;2023-10-09T11:23:28;98483.53;;;15.59;77.59
59194;BME280;44967;48.598;15.650;2023-10-09T11:26:03;98476.09;;;15.66;77.04
59194;BME280;44967;48.598;15.650;2023-10-09T11:29:06;98456.09;;;15.57;77.55
59194;BME280;44967;48.598;15.650;2023-10-09T11:32:04;98457.81;;;15.58;73.64
59194;BME280;44967;48.598;15.650;2023-10-09T11:34:34;98454.00;;;15.64;73.63
59194;BME280;44967;48.598;15.650;2023-10-09T11:37:13;98467.03;;;15.70;72.16
59194;BME280;44967;48.598;15.650;2023-10-09T11:39:50;98479.78;;;15.63;73.09
59194;BME280;44967;48.598;15.650;2023-10-09T11:42:20;98489.84;;;15.56;74.52
59194;BME280;44967;48.598;15.650;2023-10-09T11:45:05;98493.38;;;15.57;74.30
59194;BME280;44967;48.598;15.650;2023-10-09T11:47:48;98477.59;;;15.34;73.45
59194;BME280;44967;48.598;15.650;2023-10-09T11:50:46;98483.22;;;15.28;71.90
59194;BME280;44967;48.598;15.650;2023-10-09T11:53:42;98486.13;;;15.22;72.86
59194;BME280;44967;48.598;15.650;2023-10-09T11:56:09;98480.97;;;15.19;73.21
59194;BME280;44967;48.598;15.650;2023-10-09T11:58:40;98486.84;;;15.06;72.88
59194;BME280;44967;48.598;15.650;2023-10-09T12:01:13;98488.38;;;15.12;73.21
59194;BME280;44967;48.598;15.650;2023-10-09T12:03:49;98483.63;;;15.19;73.06
59194;BME280;44967;48.598;15.650;2023-10-09T12:06:16;98473.28;;;15.13;73.17
59194;BME280;44967;48.598;15.650;2023-10-09T12:08:45;98480.31;;;15.14;73.77
59194;BME280;44967;48.598;15.650;2023-10-09T12:11:13;98454.03;;;15.06;71.35
59194;BME280;44967;48.598;15.650;2023-10-09T12:13:39;98462.97;;;15.05;71.10
59194;BME280;44967;48.598;15.650;2023-10-09T12:16:08;98464.47;;;15.10;70.14
59194;BME280;44967;48.598;15.650;2023-10-09T12:18:35;98448.91;;;15.01;72.15
59194;BME280;44967;48.598;15.650;2023-10-09T12:21:01;98459.72;;;14.98;70.95
59194;BME280;44967;48.598;15.650;2023-10-09T12:23:30;98451.72;;;14.98;71.13
59194;BME280;44967;48.598;15.650;2023-10-09T12:26:01;98452.38;;;15.03;72.10
59194;BME280;44967;48.598;15.650;2023-10-09T12:28:27;98452.97;;;15.10;71.25
59194;BME280;44967;48.598;15.650;2023-10-09T12:30:53;98445.06;;;15.08;71.55
59194;BME280;44967;48.598;15.650;2023-10-09T12:33:20;98446.66;;;15.13;71.02
59194;BME280;44967;48.598;15.650;2023-10-09T12:35:54;98464.22;;;15.17;72.50
59194;BME280;44967;48.598;15.650;2023-10-09T12:38:27;98448.66;;;15.26;72.80
59194;BME280;44967;48.598;15.650;2023-10-09T12:41:04;98463.34;;;15.35;73.17
59194;BME280;44967;48.598;15.650;2023-10-09T12:43:42;98466.78;;;15.37;74.02
59194;BME280;44967;48.598;15.650;2023-10-09T12:46:08;98464.94;;;15.39;74.76
59194;BME280;44967;48.598;15.650;2023-10-09T12:48:34;98462.22;;;15.40;75.38
59194;BME280;44967;48.598;15.650;2023-10-09T12:51:01;98465.25;;;15.51;76.62
59194;BME280;44967;48.598;15.650;2023-10-09T12:53:32;98460.47;;;15.39;78.11
59194;BME280;44967;48.598;15.650;2023-10-09T12:55:59;98461.97;;;15.45;79.28
59194;BME280;44967;48.598;15.650;2023-10-09T12:58:24;98446.25;;;15.59;78.90
59194;BME280;44967;48.598;15.650;2023-10-09T13:00:52;98451.19;;;15.48;81.57
59194;BME280;44967;48.598;15.650;2023-10-09T13:03:18;98440.16;;;15.37;82.71
59194;BME280;44967;48.598;15.650;2023-10-09T13:05:46;98431.09;;;15.41;82.80
59194;BME280;44967;48.598;15.650;2023-10-09T13:08:25;98434.06;;;15.35;84.57
59194;BME280;44967;48.598;15.650;2023-10-09T13:11:01;98425.50;;;15.28;85.14
59194;BME280;44967;48.598;15.650;2023-10-09T13:13:29;98422.03;;;15.26;85.69
59194;BME280;44967;48.598;15.650;2023-10-09T13:16:15;98415.84;;;15.26;85.80
59194;BME280;44967;48.598;15.650;2023-10-09T13:21:21;98414.13;;;15.25;86.55
59194;BME280;44967;48.598;15.650;2023-10-09T13:23:48;98421.88;;;15.29;87.35
59194;BME280;44967;48.598;15.650;2023-10-09T13:26:18;98421.38;;;15.40;87.70
59194;BME280;44967;48.598;15.650;2023-10-09T13:28:50;98419.81;;;15.36;87.81
59194;BME280;44967;48.598;15.650;2023-10-09T13:31:17;98418.56;;;15.43;87.25
59194;BME280;44967;48.598;15.650;2023-10-09T13:33:44;98414.81;;;15.47;87.37
59194;BME280;44967;48.598;15.650;2023-10-09T13:36:11;98423.75;;;15.46;87.23
59194;BME280;44967;48.598;15.650;2023-10-09T13:38:55;98418.84;;;15.37;85.93
59194;BME280;44967;48.598;15.650;2023-10-09T13:41:24;98408.06;;;15.40;87.74
59194;BME280;44967;48.598;15.650;2023-10-09T13:43:59;98416.19;;;15.37;86.86